DLH878 EDDF-ENTC
Flight info
| Callsign | DLH878 |
|---|---|
| Flight time | N/A |
| Altitude | 35000 |
| Route | MARUN9S MARUN Y150 TOLGI DCT ALASA DCT MAVIP DCT PENNO DCT BARVI |
| Aircraft | A321/M-SDE2E3FGIJ1LORWXYZ/HB1 |
Departure
| Time | N/A |
|---|---|
| Airport | Frankfurt Main Airport (EDDF) |
Arrival
| Time | 2026-05-04 10:00 |
|---|---|
| Airport | Tromsø Airport (ENTC) |
| Time | Latitude | Longitude | Altitude | Speed | Heading |
|---|---|---|---|---|---|
| 2026-05-04 09:31 | 67.22724 | 15.59548 | 34591 ft | 481 kts | 12° |
| 2026-05-04 09:31 | 67.25951 | 15.61787 | 34592 ft | 481 kts | 12° |
| 2026-05-04 09:31 | 67.32405 | 15.66278 | 34590 ft | 481 kts | 12° |
| 2026-05-04 09:32 | 67.38868 | 15.70800 | 34588 ft | 481 kts | 12° |
| 2026-05-04 09:34 | 67.64628 | 15.89121 | 34587 ft | 480 kts | 12° |
| 2026-05-04 09:34 | 67.71083 | 15.93765 | 34580 ft | 480 kts | 12° |
| 2026-05-04 09:35 | 67.77518 | 15.98445 | 34592 ft | 480 kts | 13° |
| 2026-05-04 09:35 | 67.83953 | 16.03141 | 34580 ft | 479 kts | 13° |
| 2026-05-04 09:37 | 68.04625 | 16.31868 | 34566 ft | 483 kts | 30° |
| 2026-05-04 09:37 | 68.07489 | 16.36588 | 34501 ft | 484 kts | 30° |
| 2026-05-04 09:38 | 68.10343 | 16.41297 | 34297 ft | 483 kts | 30° |
| 2026-05-04 09:38 | 68.13203 | 16.46019 | 33798 ft | 484 kts | 30° |
| 2026-05-04 09:38 | 68.16094 | 16.50802 | 32752 ft | 491 kts | 30° |
| 2026-05-04 09:38 | 68.18967 | 16.55572 | 31891 ft | 492 kts | 30° |
| 2026-05-04 09:39 | 68.21891 | 16.60443 | 30903 ft | 496 kts | 30° |
| 2026-05-04 09:39 | 68.24822 | 16.65340 | 30255 ft | 492 kts | 30° |
| 2026-05-04 09:39 | 68.27715 | 16.70190 | 29664 ft | 487 kts | 30° |
| 2026-05-04 09:39 | 68.30576 | 16.75007 | 28972 ft | 483 kts | 30° |
| 2026-05-04 09:40 | 68.33409 | 16.79791 | 28380 ft | 477 kts | 30° |
| 2026-05-04 09:40 | 68.36204 | 16.84522 | 27798 ft | 471 kts | 30° |
| 2026-05-04 09:40 | 68.38964 | 16.89207 | 27189 ft | 465 kts | 30° |
| 2026-05-04 09:40 | 68.41688 | 16.93847 | 26604 ft | 459 kts | 30° |
| 2026-05-04 09:41 | 68.44370 | 16.98425 | 26024 ft | 453 kts | 31° |
| 2026-05-04 09:42 | 68.62243 | 17.29220 | 22302 ft | 415 kts | 31° |
| 2026-05-04 09:43 | 68.64657 | 17.33433 | 21827 ft | 409 kts | 31° |
| 2026-05-04 09:43 | 68.67039 | 17.37600 | 21345 ft | 403 kts | 31° |
| 2026-05-04 09:43 | 68.69382 | 17.41709 | 20890 ft | 396 kts | 31° |
| 2026-05-04 09:43 | 68.71686 | 17.45766 | 20435 ft | 390 kts | 31° |
| 2026-05-04 09:44 | 68.73957 | 17.49771 | 19984 ft | 385 kts | 32° |
| 2026-05-04 09:44 | 68.76199 | 17.53733 | 19509 ft | 380 kts | 32° |
| 2026-05-04 09:44 | 68.78409 | 17.57645 | 19049 ft | 376 kts | 32° |
| 2026-05-04 09:46 | 68.93266 | 17.84191 | 15698 ft | 352 kts | 32° |
| 2026-05-04 09:46 | 68.95308 | 17.87870 | 15228 ft | 349 kts | 32° |
| 2026-05-04 09:46 | 68.97335 | 17.91533 | 14769 ft | 346 kts | 32° |
| 2026-05-04 09:47 | 68.99346 | 17.95169 | 14310 ft | 343 kts | 32° |
| 2026-05-04 09:47 | 69.01334 | 17.98778 | 13846 ft | 340 kts | 32° |
| 2026-05-04 09:49 | 69.14676 | 18.23198 | 10671 ft | 316 kts | 33° |
| 2026-05-04 09:49 | 69.16507 | 18.26576 | 10239 ft | 313 kts | 33° |
| 2026-05-04 09:49 | 69.18310 | 18.29916 | 9954 ft | 305 kts | 33° |
| 2026-05-04 09:51 | 69.28550 | 18.48960 | 8396 ft | 292 kts | 34° |
| 2026-05-04 09:51 | 69.30227 | 18.52089 | 8090 ft | 289 kts | 33° |
| 2026-05-04 09:51 | 69.31907 | 18.55243 | 7660 ft | 288 kts | 33° |
| 2026-05-04 09:51 | 69.33544 | 18.58327 | 7271 ft | 285 kts | 33° |
| 2026-05-04 09:52 | 69.35195 | 18.61454 | 6818 ft | 285 kts | 34° |
| 2026-05-04 09:52 | 69.36798 | 18.64504 | 6619 ft | 269 kts | 34° |
| 2026-05-04 09:52 | 69.38305 | 18.67366 | 6496 ft | 252 kts | 34° |
| 2026-05-04 09:52 | 69.39727 | 18.70060 | 6388 ft | 240 kts | 34° |
| 2026-05-04 09:53 | 69.41075 | 18.72612 | 6288 ft | 226 kts | 34° |
| 2026-05-04 09:53 | 69.42435 | 18.74696 | 6195 ft | 221 kts | 19° |
| 2026-05-04 09:53 | 69.43921 | 18.75849 | 5881 ft | 221 kts | 13° |
| 2026-05-04 09:53 | 69.45400 | 18.76790 | 5585 ft | 214 kts | 12° |
| 2026-05-04 09:54 | 69.46825 | 18.77707 | 5303 ft | 208 kts | 13° |
| 2026-05-04 09:54 | 69.48210 | 18.78608 | 5068 ft | 198 kts | 13° |
| 2026-05-04 09:54 | 69.49503 | 18.79453 | 4906 ft | 187 kts | 13° |
| 2026-05-04 09:54 | 69.50770 | 18.80284 | 4610 ft | 187 kts | 14° |
| 2026-05-04 09:55 | 69.52037 | 18.81115 | 4287 ft | 187 kts | 14° |
| 2026-05-04 09:55 | 69.53309 | 18.81950 | 3927 ft | 188 kts | 13° |
| 2026-05-04 09:55 | 69.54583 | 18.82787 | 3569 ft | 188 kts | 13° |
| 2026-05-04 09:55 | 69.55857 | 18.83626 | 3220 ft | 189 kts | 14° |
| 2026-05-04 09:56 | 69.57134 | 18.84467 | 2864 ft | 187 kts | 14° |
| 2026-05-04 09:56 | 69.58395 | 18.85299 | 2516 ft | 186 kts | 14° |
| 2026-05-04 09:56 | 69.59648 | 18.86127 | 2180 ft | 184 kts | 14° |
| 2026-05-04 09:56 | 69.60847 | 18.86918 | 1840 ft | 170 kts | 14° |
| 2026-05-04 09:57 | 69.61961 | 18.87655 | 1518 ft | 158 kts | 14° |
| 2026-05-04 09:57 | 69.62999 | 18.88344 | 1223 ft | 149 kts | 14° |
| 2026-05-04 09:57 | 69.63970 | 18.88989 | 960 ft | 142 kts | 13° |
| 2026-05-04 09:57 | 69.64930 | 18.89624 | 705 ft | 139 kts | 13° |
| 2026-05-04 09:58 | 69.65849 | 18.90226 | 454 ft | 136 kts | 13° |
| 2026-05-04 09:58 | 69.66774 | 18.90850 | 206 ft | 134 kts | 14° |
| 2026-05-04 09:58 | 69.67662 | 18.91445 | 42 ft | 127 kts | 13° |
| 2026-05-04 10:00 | 69.68643 | 18.91629 | 25 ft | 9 kts | 192° |
| 2026-05-04 10:00 | 69.68584 | 18.91589 | 29 ft | 10 kts | 193° |
| 2026-05-04 10:02 | 69.67934 | 18.91234 | 36 ft | 13 kts | 193° |
| 2026-05-04 10:04 | 69.67818 | 18.90824 | 38 ft | 0 kts | 283° |